Time;durP1;ratioP1;P1;durP2;ratioP2;P2;SDS_P1;SDS_P2;PMS_P1;PMS_P2;Temp;Humidity;BMP_temperature;BMP_pressure;BME280_temperature;BME280_humidity;BME280_pressure;Samples;Min_cycle;Max_cycle;Signal;HPM_P1;HPM_P2
2023/10/11 00:02:57;;;;;;;1999.90;999.90;;;17.00;99.90;;;;;;5047902;28;20463;-71
2023/10/11 00:05:24;;;;;;;1999.90;999.90;;;17.00;99.90;;;;;;5047609;28;20451;-71
2023/10/11 00:07:51;;;;;;;1999.90;999.90;;;17.00;99.90;;;;;;5044608;28;20056;-72
2023/10/11 00:10:19;;;;;;;1999.90;999.90;;;17.00;99.90;;;;;;5032432;28;20041;-71
2023/10/11 00:12:45;;;;;;;1999.90;999.90;;;17.00;99.90;;;;;;5041314;28;20037;-71
2023/10/11 00:15:11;;;;;;;1999.90;999.90;;;17.00;99.90;;;;;;5049306;28;20048;-72
2023/10/11 00:17:37;;;;;;;1999.90;999.90;;;17.00;99.90;;;;;;5037684;28;20037;-72
2023/10/11 00:20:19;;;;;;;1999.90;999.90;;;17.00;99.90;;;;;;5048799;28;20504;-72
2023/10/11 00:22:45;;;;;;;1999.90;999.90;;;17.00;99.90;;;;;;5047512;28;20516;-73
2023/10/11 00:25:18;;;;;;;1999.90;999.90;;;17.00;99.90;;;;;;5042069;28;20037;-72
2023/10/11 00:27:44;;;;;;;1999.90;999.90;;;17.00;99.90;;;;;;5047646;28;20045;-71
2023/10/11 00:30:11;;;;;;;1999.90;999.90;;;17.00;99.90;;;;;;5031047;28;20040;-72
2023/10/11 00:32:37;;;;;;;1999.90;999.90;;;17.00;99.90;;;;;;5065422;28;20680;-72
2023/10/11 00:35:03;;;;;;;1999.90;999.90;;;17.00;99.90;;;;;;5031309;28;20040;-72
2023/10/11 00:37:29;;;;;;;1999.90;999.90;;;17.00;99.90;;;;;;5039429;28;20603;-72
2023/10/11 00:39:55;;;;;;;1999.90;999.90;;;17.00;99.90;;;;;;5048951;28;20064;-71
2023/10/11 00:42:21;;;;;;;1999.90;999.90;;;17.00;99.90;;;;;;5041049;28;20041;-71
2023/10/11 00:44:47;;;;;;;1999.90;999.90;;;17.00;99.90;;;;;;5046051;28;20044;-72
2023/10/11 00:47:16;;;;;;;1999.90;999.90;;;17.00;99.90;;;;;;5049988;28;20040;-72
2023/10/11 00:49:45;;;;;;;1999.90;999.90;;;17.00;99.90;;;;;;5048116;28;20068;-72
2023/10/11 00:52:13;;;;;;;1999.90;999.90;;;17.10;99.90;;;;;;5046748;28;20040;-71
2023/10/11 00:54:43;;;;;;;1999.90;999.90;;;17.00;99.90;;;;;;5048379;28;20040;-72
2023/10/11 00:57:12;;;;;;;1999.90;999.90;;;17.00;99.90;;;;;;5031062;28;20037;-72
2023/10/11 00:59:39;;;;;;;1999.90;999.90;;;17.00;99.90;;;;;;5054617;28;20091;-71
2023/10/11 01:02:07;;;;;;;1999.90;999.90;;;17.00;99.90;;;;;;5048167;28;20044;-72
2023/10/11 01:04:37;;;;;;;1999.90;999.90;;;17.00;99.90;;;;;;5039844;28;20049;-72
2023/10/11 01:07:03;;;;;;;1999.90;999.90;;;16.90;99.90;;;;;;5047274;28;20489;-72
2023/10/11 01:09:29;;;;;;;1999.90;999.90;;;16.90;99.90;;;;;;5048327;28;20432;-72
2023/10/11 01:11:55;;;;;;;1999.90;999.90;;;16.90;99.90;;;;;;5046469;28;20175;-72
2023/10/11 01:14:23;;;;;;;1999.90;999.90;;;17.00;99.90;;;;;;5043858;28;20410;-72
2023/10/11 01:16:51;;;;;;;1999.90;999.90;;;16.90;99.90;;;;;;5035619;28;20041;-72
2023/10/11 01:19:18;;;;;;;1999.90;999.90;;;16.90;99.90;;;;;;5028649;28;20041;-71
2023/10/11 01:21:48;;;;;;;1999.90;999.90;;;16.90;99.90;;;;;;5046449;28;20044;-72
2023/10/11 01:24:16;;;;;;;1999.90;999.90;;;16.90;99.90;;;;;;5055298;28;20410;-72
2023/10/11 01:26:42;;;;;;;1999.90;999.90;;;16.90;99.90;;;;;;5064507;28;20049;-71
2023/10/11 01:29:09;;;;;;;1999.90;999.90;;;16.90;99.90;;;;;;5056403;28;20047;-72
2023/10/11 01:31:35;;;;;;;1999.90;999.90;;;16.90;99.90;;;;;;5046293;28;20033;-72
2023/10/11 01:34:01;;;;;;;1999.90;999.90;;;16.90;99.90;;;;;;5047463;28;20417;-72
2023/10/11 01:36:27;;;;;;;1999.90;999.90;;;16.90;99.90;;;;;;5047884;28;20051;-71
2023/10/11 01:38:53;;;;;;;1999.90;999.90;;;17.00;99.90;;;;;;5043860;28;20049;-72
2023/10/11 01:41:22;;;;;;;1999.90;999.90;;;16.90;99.90;;;;;;5041994;28;20060;-71
2023/10/11 01:43:49;;;;;;;1999.90;999.90;;;16.90;99.90;;;;;;5052859;28;20711;-72
2023/10/11 01:46:27;;;;;;;1999.90;999.90;;;16.90;99.90;;;;;;5052037;28;20041;-72
2023/10/11 01:48:57;;;;;;;1999.90;999.90;;;16.90;99.90;;;;;;5059073;28;20041;-72
2023/10/11 01:51:27;;;;;;;1999.90;999.90;;;16.80;99.90;;;;;;5034890;28;20037;-72
2023/10/11 01:53:59;;;;;;;1999.90;999.90;;;16.80;99.90;;;;;;5030497;28;20099;-71
2023/10/11 01:56:26;;;;;;;1999.90;999.90;;;16.90;99.90;;;;;;5046158;28;20131;-72
2023/10/11 01:59:01;;;;;;;1999.90;999.90;;;16.90;99.90;;;;;;5063177;28;20040;-72
2023/10/11 02:01:30;;;;;;;1999.90;999.90;;;17.00;99.90;;;;;;5048240;28;20497;-72
2023/10/11 02:03:59;;;;;;;1999.90;999.90;;;16.90;99.90;;;;;;5028439;28;20146;-71
2023/10/11 02:06:25;;;;;;;1999.90;999.90;;;16.90;99.90;;;;;;5039058;28;20041;-72
2023/10/11 02:08:52;;;;;;;1999.90;999.90;;;17.00;99.90;;;;;;5036445;28;20048;-72
2023/10/11 02:11:24;;;;;;;1999.90;999.90;;;16.90;99.90;;;;;;5046064;28;20044;-72
2023/10/11 02:13:50;;;;;;;1999.90;999.90;;;16.90;99.90;;;;;;5047070;28;20127;-71
2023/10/11 02:16:16;;;;;;;1999.90;999.90;;;16.80;99.90;;;;;;5041159;28;20072;-71
2023/10/11 02:18:51;;;;;;;1999.90;999.90;;;16.90;99.90;;;;;;5041382;28;20045;-72
2023/10/11 02:21:19;;;;;;;1999.90;999.90;;;16.80;99.90;;;;;;5045776;28;20473;-71
2023/10/11 02:23:46;;;;;;;1999.90;999.90;;;16.80;99.90;;;;;;5048429;28;20055;-72
2023/10/11 02:26:16;;;;;;;1999.90;999.90;;;16.80;99.90;;;;;;5029464;28;20032;-72
2023/10/11 02:28:43;;;;;;;1999.90;999.90;;;16.70;99.90;;;;;;5063163;28;20115;-71
2023/10/11 02:31:13;;;;;;;1999.90;999.90;;;16.70;99.90;;;;;;5046483;28;20056;-71
2023/10/11 02:33:39;;;;;;;1999.90;999.90;;;16.60;99.90;;;;;;5063493;28;20148;-72
2023/10/11 02:36:09;;;;;;;1999.90;999.90;;;16.60;99.90;;;;;;5037480;28;20152;-72
2023/10/11 02:38:50;;;;;;;1999.90;999.90;;;16.70;99.90;;;;;;5051265;28;20386;-72
2023/10/11 02:41:25;;;;;;;1999.90;999.90;;;16.60;99.90;;;;;;5046368;28;20052;-73
2023/10/11 02:43:57;;;;;;;1999.90;999.90;;;16.60;99.90;;;;;;5057771;28;20049;-72
2023/10/11 02:46:23;;;;;;;1999.90;999.90;;;16.60;99.90;;;;;;5046633;28;20085;-72
2023/10/11 02:49:05;;;;;;;1999.90;999.90;;;16.60;99.90;;;;;;5036332;28;20072;-72
2023/10/11 02:51:33;;;;;;;1999.90;999.90;;;16.60;99.90;;;;;;5046604;28;20412;-72
2023/10/11 02:54:05;;;;;;;1999.90;999.90;;;16.60;99.90;;;;;;5051299;28;20451;-72
2023/10/11 02:56:46;;;;;;;1999.90;999.90;;;16.50;99.90;;;;;;5046819;28;20041;-72
2023/10/11 02:59:19;;;;;;;1999.90;999.90;;;16.50;99.90;;;;;;5049006;28;20715;-71
2023/10/11 03:02:15;;;;;;;1999.90;999.90;;;16.50;99.90;;;;;;5049780;28;20036;-72
2023/10/11 03:04:39;;;;;;;1999.90;999.90;;;16.50;99.90;;;;;;5063886;28;20049;-71
2023/10/11 03:07:09;;;;;;;1999.90;999.90;;;16.40;99.90;;;;;;5021638;28;20040;-72
2023/10/11 03:09:36;;;;;;;1999.90;999.90;;;16.40;99.90;;;;;;5051673;28;20040;-71
2023/10/11 03:12:06;;;;;;;1999.90;999.90;;;16.40;99.90;;;;;;5048282;28;20037;-72
2023/10/11 03:14:41;;;;;;;1999.90;999.90;;;16.50;99.90;;;;;;5057298;28;20799;-71
2023/10/11 03:17:13;;;;;;;1999.90;999.90;;;16.40;99.90;;;;;;5043339;28;20057;-71
2023/10/11 03:19:42;;;;;;;1999.90;999.90;;;16.40;99.90;;;;;;5048781;28;20040;-72
2023/10/11 03:22:08;;;;;;;1999.90;999.90;;;16.40;99.90;;;;;;5049450;28;20512;-71
2023/10/11 03:24:39;;;;;;;1999.90;999.90;;;16.40;99.90;;;;;;5051146;28;20049;-71
2023/10/11 03:27:09;;;;;;;1999.90;999.90;;;16.40;99.90;;;;;;5047304;28;20702;-72
2023/10/11 03:29:35;;;;;;;1999.90;999.90;;;16.40;99.90;;;;;;5044293;28;20049;-72
2023/10/11 03:32:00;;;;;;;1999.90;999.90;;;16.40;99.90;;;;;;5044474;28;20044;-72
2023/10/11 03:34:29;;;;;;;1999.90;999.90;;;16.40;99.90;;;;;;5048331;28;20658;-72
2023/10/11 03:36:59;;;;;;;1999.90;999.90;;;16.40;99.90;;;;;;5051269;28;20045;-71
2023/10/11 03:44:45;;;;;;;1999.90;999.90;;;16.40;99.90;;;;;;5051590;28;20166;-71
2023/10/11 03:47:14;;;;;;;1999.90;999.90;;;16.40;99.90;;;;;;5032273;28;20037;-71
2023/10/11 03:52:19;;;;;;;1999.90;999.90;;;16.40;99.90;;;;;;5049554;28;20753;-72
2023/10/11 03:54:54;;;;;;;1999.90;999.90;;;16.50;99.90;;;;;;5049490;28;20052;-72
2023/10/11 03:57:20;;;;;;;1999.90;999.90;;;16.50;99.90;;;;;;5029039;28;20041;-72
2023/10/11 03:59:48;;;;;;;1999.90;999.90;;;16.40;99.90;;;;;;5041927;28;20055;-72
2023/10/11 04:02:18;;;;;;;1999.90;999.90;;;16.40;99.90;;;;;;5047357;28;20040;-71
2023/10/11 04:04:48;;;;;;;1999.90;999.90;;;16.50;99.90;;;;;;5048848;28;20048;-72
2023/10/11 04:07:22;;;;;;;1999.90;999.90;;;16.40;99.90;;;;;;5047497;28;20559;-71
2023/10/11 04:09:49;;;;;;;1999.90;999.90;;;16.50;99.90;;;;;;5058127;28;20127;-72
2023/10/11 04:12:15;;;;;;;1999.90;999.90;;;16.50;99.90;;;;;;5047695;28;20033;-72
2023/10/11 04:14:45;;;;;;;1999.90;999.90;;;16.50;99.90;;;;;;5057547;28;20114;-72
2023/10/11 04:17:15;;;;;;;1999.90;999.90;;;16.50;99.90;;;;;;5038775;28;20444;-72
2023/10/11 04:19:43;;;;;;;1999.90;999.90;;;16.50;99.90;;;;;;5047617;28;20036;-72
2023/10/11 04:22:24;;;;;;;1999.90;999.90;;;16.50;99.90;;;;;;5041418;28;20832;-71
2023/10/11 04:24:53;;;;;;;1999.90;999.90;;;16.50;99.90;;;;;;5048961;28;20056;-71
2023/10/11 04:29:52;;;;;;;1999.90;999.90;;;16.50;99.90;;;;;;5048278;28;20539;-71
2023/10/11 04:35:21;;;;;;;1999.90;999.90;;;16.50;99.90;;;;;;5059904;28;20124;-71
2023/10/11 04:37:54;;;;;;;1999.90;999.90;;;16.50;99.90;;;;;;5049803;28;20051;-71
2023/10/11 04:40:35;;;;;;;1999.90;999.90;;;16.50;99.90;;;;;;5048132;28;20427;-71
2023/10/11 04:43:06;;;;;;;1999.90;999.90;;;16.50;99.90;;;;;;5047411;28;20069;-72
2023/10/11 04:45:44;;;;;;;1999.90;999.90;;;16.50;99.90;;;;;;5047809;28;20052;-71
2023/10/11 04:48:29;;;;;;;1999.90;999.90;;;16.50;99.90;;;;;;5044655;28;20061;-72
2023/10/11 04:53:56;;;;;;;1999.90;999.90;;;16.50;99.90;;;;;;5030166;28;20123;-72
2023/10/11 04:59:09;;;;;;;1999.90;999.90;;;16.50;99.90;;;;;;5031779;28;20132;-72
2023/10/11 05:04:15;;;;;;;1999.90;999.90;;;16.60;99.90;;;;;;5039918;28;20457;-72
2023/10/11 05:06:44;;;;;;;1999.90;999.90;;;16.60;99.90;;;;;;5036546;28;20084;-72
2023/10/11 05:09:21;;;;;;;1999.90;999.90;;;16.60;99.90;;;;;;5058677;28;20034;-73
2023/10/11 05:12:07;;;;;;;1999.90;999.90;;;16.60;99.90;;;;;;5040970;28;20362;-72
2023/10/11 05:14:39;;;;;;;1999.90;999.90;;;16.70;99.90;;;;;;5037704;28;20049;-71
2023/10/11 05:19:45;;;;;;;1999.90;999.90;;;16.70;99.90;;;;;;5030845;28;20041;-71
2023/10/11 05:23:05;;;;;;;1999.90;999.90;;;16.70;99.90;;;;;;5049470;28;20128;-71
2023/10/11 05:32:42;;;;;;;1999.90;999.90;;;16.60;99.90;;;;;;5034394;28;20052;-72
2023/10/11 05:51:33;;;;;;;1999.90;999.90;;;16.50;99.90;;;;;;5044360;28;20045;-72
2023/10/11 05:54:07;;;;;;;1999.90;999.90;;;16.60;99.90;;;;;;5052403;28;20056;-72
2023/10/11 05:56:34;;;;;;;1999.90;999.90;;;16.50;99.90;;;;;;5013205;28;20037;-71
2023/10/11 05:59:04;;;;;;;1999.90;999.90;;;16.60;99.90;;;;;;5045968;28;20052;-71
2023/10/11 06:01:30;;;;;;;1999.90;999.90;;;16.50;99.90;;;;;;5026858;28;20046;-72
2023/10/11 06:03:57;;;;;;;1999.90;999.90;;;16.60;99.90;;;;;;5038218;28;20045;-72
2023/10/11 06:06:23;;;;;;;1999.90;999.90;;;16.60;99.90;;;;;;5029058;28;20045;-72
2023/10/11 06:08:59;;;;;;;1999.90;999.90;;;16.60;99.90;;;;;;5044288;28;20047;-71
2023/10/11 06:11:29;;;;;;;1999.90;999.90;;;16.60;99.90;;;;;;5049744;28;20052;-71
2023/10/11 06:13:55;;;;;;;1999.90;999.90;;;16.60;99.90;;;;;;5049787;28;20045;-71
2023/10/11 06:16:24;;;;;;;1999.90;999.90;;;16.70;99.90;;;;;;5034588;28;20041;-71
2023/10/11 06:18:56;;;;;;;1999.90;999.90;;;16.70;99.90;;;;;;5050637;28;20045;-72
2023/10/11 06:21:33;;;;;;;1999.90;999.90;;;16.70;99.90;;;;;;5061597;28;20075;-71
2023/10/11 06:24:00;;;;;;;1999.90;999.90;;;16.80;99.90;;;;;;5044716;28;20060;-72
2023/10/11 06:26:29;;;;;;;1999.90;999.90;;;16.80;99.90;;;;;;5026398;28;20565;-72
2023/10/11 06:29:03;;;;;;;1999.90;999.90;;;16.80;99.90;;;;;;5030370;28;20468;-72
2023/10/11 06:31:43;;;;;;;1999.90;999.90;;;16.90;99.90;;;;;;5048457;28;20167;-72
2023/10/11 06:34:15;;;;;;;1999.90;999.90;;;16.90;99.90;;;;;;5059662;28;20087;-72
2023/10/11 06:36:51;;;;;;;1999.90;999.90;;;17.00;99.90;;;;;;5049876;28;20409;-71
2023/10/11 06:42:12;;;;;;;1999.90;999.90;;;17.00;99.90;;;;;;5045368;28;20402;-72
2023/10/11 06:44:49;;;;;;;1999.90;999.90;;;17.10;99.90;;;;;;5050351;28;20048;-71
2023/10/11 06:47:18;;;;;;;1999.90;999.90;;;17.10;99.90;;;;;;5044397;28;20041;-71
2023/10/11 06:49:44;;;;;;;1999.90;999.90;;;17.10;99.90;;;;;;5045358;28;20117;-72
2023/10/11 06:52:17;;;;;;;1999.90;999.90;;;17.10;99.90;;;;;;5063353;28;20041;-72
2023/10/11 06:54:47;;;;;;;1999.90;999.90;;;17.20;99.90;;;;;;5049656;28;20476;-72
2023/10/11 06:57:19;;;;;;;1999.90;999.90;;;17.30;99.90;;;;;;5066815;28;20052;-72
2023/10/11 06:59:57;;;;;;;1999.90;999.90;;;17.20;99.90;;;;;;5033132;28;20080;-72
2023/10/11 07:02:31;;;;;;;1999.90;999.90;;;17.20;99.90;;;;;;5049489;28;20078;-72
2023/10/11 07:05:08;;;;;;;1999.90;999.90;;;17.30;99.90;;;;;;5036798;28;20038;-72
2023/10/11 07:07:34;;;;;;;1999.90;999.90;;;17.30;99.90;;;;;;5048624;28;20033;-73
2023/10/11 07:10:05;;;;;;;1999.90;999.90;;;17.30;99.90;;;;;;5061042;28;20524;-72
2023/10/11 07:12:39;;;;;;;1999.90;999.90;;;17.30;99.90;;;;;;5043607;28;20028;-72
2023/10/11 07:15:09;;;;;;;1999.90;999.90;;;17.40;99.90;;;;;;5043489;28;20049;-72
2023/10/11 07:17:36;;;;;;;1999.90;999.90;;;17.40;99.90;;;;;;5044027;28;20052;-72
2023/10/11 07:20:12;;;;;;;1999.90;999.90;;;17.40;99.90;;;;;;5033697;28;20049;-72
2023/10/11 07:22:39;;;;;;;1999.90;999.90;;;17.40;99.90;;;;;;5051119;28;20037;-72
2023/10/11 07:25:36;;;;;;;1999.90;999.90;;;17.50;99.90;;;;;;5049518;28;20128;-72
2023/10/11 07:27:53;;;;;;;1999.90;999.90;;;17.50;99.90;;;;;;5048674;28;20041;-72
2023/10/11 07:30:19;;;;;;;1999.90;999.90;;;17.50;99.90;;;;;;5032954;28;20041;-71
2023/10/11 07:32:45;;;;;;;1999.90;999.90;;;17.50;99.90;;;;;;5051196;28;20037;-72
2023/10/11 07:35:28;;;;;;;1999.90;999.90;;;17.50;99.90;;;;;;5048207;28;20401;-71
2023/10/11 07:37:54;;;;;;;1999.90;999.90;;;17.60;99.90;;;;;;5048448;28;20784;-72
2023/10/11 07:40:32;;;;;;;1999.90;999.90;;;17.60;99.90;;;;;;5049247;28;20045;-71
2023/10/11 07:42:58;;;;;;;1999.90;999.90;;;17.60;99.90;;;;;;5060116;28;20061;-72
2023/10/11 07:45:26;;;;;;;1999.90;999.90;;;17.60;99.90;;;;;;5050439;28;20550;-72
2023/10/11 07:47:52;;;;;;;1999.90;999.90;;;17.70;99.90;;;;;;5031932;28;20033;-72
2023/10/11 07:50:24;;;;;;;1999.90;999.90;;;17.70;99.90;;;;;;5048578;28;20493;-72
2023/10/11 07:52:50;;;;;;;1999.90;999.90;;;17.80;99.90;;;;;;5048978;28;20045;-71
2023/10/11 07:55:17;;;;;;;1999.90;999.90;;;17.80;99.90;;;;;;5032324;28;20032;-71
2023/10/11 07:57:46;;;;;;;1999.90;999.90;;;17.70;99.90;;;;;;5048011;28;20045;-72
2023/10/11 08:00:18;;;;;;;1999.90;999.90;;;17.80;99.90;;;;;;5049054;28;20040;-72
2023/10/11 08:03:02;;;;;;;1999.90;999.90;;;17.80;99.90;;;;;;5049039;28;20055;-72
2023/10/11 08:05:29;;;;;;;1999.90;999.90;;;17.80;99.90;;;;;;5031974;28;20047;-72
2023/10/11 08:07:55;;;;;;;1999.90;999.90;;;17.80;99.90;;;;;;5028727;28;20402;-71
2023/10/11 08:10:34;;;;;;;1999.90;999.90;;;17.80;99.90;;;;;;5034442;28;20052;-71
2023/10/11 08:13:03;;;;;;;1999.90;999.90;;;17.80;99.90;;;;;;5032419;28;20062;-72
2023/10/11 08:15:29;;;;;;;1999.90;999.90;;;17.90;99.90;;;;;;5045804;28;20037;-72
2023/10/11 08:17:55;;;;;;;1999.90;999.90;;;17.90;99.90;;;;;;5046531;28;20047;-72
2023/10/11 08:20:27;;;;;;;1999.90;999.90;;;17.80;99.90;;;;;;5048784;28;20052;-72
2023/10/11 08:22:55;;;;;;;1999.90;999.90;;;17.90;99.90;;;;;;5048330;28;20028;-72
2023/10/11 08:25:26;;;;;;;1999.90;999.90;;;17.90;99.90;;;;;;5042921;28;20089;-72
2023/10/11 08:28:08;;;;;;;1999.90;999.90;;;17.90;99.90;;;;;;5045723;28;20436;-73
2023/10/11 08:30:37;;;;;;;1999.90;999.90;;;17.90;99.90;;;;;;5039804;28;20492;-72
2023/10/11 08:33:04;;;;;;;1999.90;999.90;;;17.90;99.90;;;;;;5030492;28;20120;-71
2023/10/11 08:35:32;;;;;;;1999.90;999.90;;;17.80;99.90;;;;;;5049011;28;20087;-72
2023/10/11 08:38:05;;;;;;;1999.90;999.90;;;17.90;99.90;;;;;;5048319;28;20045;-72
2023/10/11 08:40:37;;;;;;;1999.90;999.90;;;17.80;99.90;;;;;;5062993;28;20124;-71
2023/10/11 08:43:03;;;;;;;1999.90;999.90;;;17.70;99.90;;;;;;5064687;28;20049;-72
2023/10/11 08:45:48;;;;;;;1999.90;999.90;;;17.70;99.90;;;;;;5064730;28;20051;-72
2023/10/11 08:48:14;;;;;;;;;;;17.70;99.90;;;;;;5064304;28;20034;-72
2023/10/11 08:50:44;;;;;;;1999.90;999.90;;;17.80;99.90;;;;;;5043525;28;19916;-72
2023/10/11 08:53:10;;;;;;;1999.90;999.90;;;17.80;99.90;;;;;;5064366;28;20075;-73
2023/10/11 08:55:39;;;;;;;1999.90;999.90;;;17.80;99.90;;;;;;5064765;28;20100;-72
2023/10/11 08:58:05;;;;;;;1999.90;999.90;;;17.70;99.90;;;;;;5047275;28;20432;-72
2023/10/11 09:00:33;;;;;;;1999.90;999.90;;;17.70;99.90;;;;;;5031133;28;20043;-73
2023/10/11 09:03:17;;;;;;;1999.90;999.90;;;17.70;99.90;;;;;;5048287;28;20459;-73
2023/10/11 09:05:43;;;;;;;1999.90;999.90;;;17.70;99.90;;;;;;5041664;28;20477;-73
2023/10/11 09:08:26;;;;;;;1999.90;999.90;;;17.70;99.90;;;;;;5047587;28;20036;-72
2023/10/11 09:10:53;;;;;;;1999.90;999.90;;;17.80;99.90;;;;;;5038505;28;20052;-72
2023/10/11 09:13:26;;;;;;;1999.90;999.90;;;17.70;99.90;;;;;;5046749;28;20057;-72
2023/10/11 09:15:54;;;;;;;1999.90;999.90;;;17.70;99.90;;;;;;5037232;28;20041;-72
2023/10/11 09:18:20;;;;;;;1999.90;999.90;;;17.70;99.90;;;;;;5043964;28;20631;-72
2023/10/11 09:21:10;;;;;;;1999.90;999.90;;;17.70;99.90;;;;;;5027562;28;20136;-73
2023/10/11 09:23:36;;;;;;;1999.90;999.90;;;17.70;99.90;;;;;;5063535;28;20120;-72
2023/10/11 09:26:03;;;;;;;1999.90;999.90;;;17.80;99.90;;;;;;5048222;28;20052;-73
2023/10/11 09:28:33;;;;;;;1999.90;999.90;;;17.80;99.90;;;;;;5043289;28;20037;-72
2023/10/11 09:31:11;;;;;;;1999.90;999.90;;;17.90;99.90;;;;;;5025318;28;20049;-71
2023/10/11 09:33:40;;;;;;;1999.90;999.90;;;18.00;99.90;;;;;;5046465;28;20413;-72
2023/10/11 09:36:12;;;;;;;1999.90;999.90;;;18.10;99.90;;;;;;5046064;28;20070;-72
2023/10/11 09:38:41;;;;;;;1999.90;999.90;;;18.20;99.90;;;;;;5047247;28;20048;-73
2023/10/11 09:41:08;;;;;;;1999.90;999.90;;;18.30;99.90;;;;;;5028957;28;20111;-73
2023/10/11 09:43:44;;;;;;;1999.90;999.90;;;18.30;99.90;;;;;;5038466;28;20071;-72
2023/10/11 09:46:13;;;;;;;1999.90;999.90;;;18.40;99.90;;;;;;5045934;28;20156;-73
2023/10/11 09:48:42;;;;;;;1999.90;999.90;;;18.40;99.90;;;;;;5041056;28;20041;-72
2023/10/11 09:51:15;;;;;;;1999.90;999.90;;;18.40;99.90;;;;;;5046509;28;20048;-72
2023/10/11 09:53:42;;;;;;;1999.90;999.90;;;18.40;99.90;;;;;;5047036;28;20131;-72
2023/10/11 09:56:30;;;;;;;1999.90;999.90;;;18.40;99.90;;;;;;5040285;28;20126;-72
2023/10/11 09:59:34;;;;;;;1999.90;999.90;;;18.40;99.90;;;;;;5042078;28;20060;-72
2023/10/11 10:02:19;;;;;;;1999.90;999.90;;;18.50;99.90;;;;;;5047963;28;20083;-72
2023/10/11 10:04:49;;;;;;;1999.90;999.90;;;18.50;99.90;;;;;;5047348;28;20071;-72
2023/10/11 10:07:25;;;;;;;1999.90;999.90;;;18.60;99.90;;;;;;5044915;28;20075;-73
2023/10/11 10:10:01;;;;;;;1999.90;999.90;;;18.70;99.90;;;;;;5048616;28;20436;-72
2023/10/11 10:12:40;;;;;;;1999.90;999.90;;;18.70;99.90;;;;;;5038489;28;20037;-71
2023/10/11 10:15:12;;;;;;;1999.90;999.90;;;18.70;99.90;;;;;;5037295;28;20033;-72
2023/10/11 10:17:38;;;;;;;1999.90;999.90;;;18.80;99.90;;;;;;5039508;28;20048;-72
2023/10/11 10:20:28;;;;;;;1999.90;999.90;;;18.80;99.90;;;;;;5049097;28;20037;-72
2023/10/11 10:23:16;;;;;;;1999.90;999.90;;;18.70;99.90;;;;;;5046660;28;20409;-72
2023/10/11 10:25:48;;;;;;;1999.90;999.90;;;18.70;99.90;;;;;;5045902;28;20570;-72
2023/10/11 10:28:35;;;;;;;1999.90;999.90;;;18.70;99.90;;;;;;5041965;28;20042;-72
2023/10/11 10:31:11;;;;;;;1999.90;999.90;;;18.70;99.90;;;;;;5024137;28;20139;-72
2023/10/11 10:33:40;;;;;;;1999.90;999.90;;;18.80;99.90;;;;;;5047016;28;20041;-73
2023/10/11 10:36:21;;;;;;;1999.90;999.90;;;18.80;99.90;;;;;;5049100;28;20041;-72
2023/10/11 10:39:46;;;;;;;1999.90;999.90;;;18.90;99.90;;;;;;5046464;28;20041;-72
2023/10/11 10:42:12;;;;;;;1999.90;999.90;;;19.00;99.90;;;;;;5035491;28;20266;-72
2023/10/11 10:44:54;;;;;;;1999.90;999.90;;;19.40;99.90;;;;;;5061557;28;20049;-72
2023/10/11 10:47:31;;;;;;;1999.90;999.90;;;19.80;99.90;;;;;;5046518;28;20049;-72
2023/10/11 10:49:56;;;;;;;1999.90;999.90;;;19.90;99.90;;;;;;5046472;28;21458;-72
2023/10/11 10:52:26;;;;;;;1999.90;999.90;;;20.00;99.90;;;;;;5046408;28;20048;-72
2023/10/11 10:55:02;;;;;;;1999.90;999.90;;;20.30;99.90;;;;;;5029721;28;20175;-72
2023/10/11 10:57:31;;;;;;;1999.90;999.90;;;20.40;99.90;;;;;;5062154;28;20125;-72
2023/10/11 10:59:58;;;;;;;1999.90;999.90;;;20.40;99.90;;;;;;5046570;28;20071;-72
2023/10/11 11:02:24;;;;;;;1999.90;999.90;;;20.30;99.90;;;;;;5046085;28;20044;-72
2023/10/11 11:04:49;;;;;;;1999.90;999.90;;;20.30;99.90;;;;;;5023354;28;20481;-73
2023/10/11 11:07:23;;;;;;;1999.90;999.90;;;20.40;99.90;;;;;;5045371;28;20041;-72
2023/10/11 11:09:54;;;;;;;1999.90;999.90;;;20.60;99.90;;;;;;5044480;28;20048;-72
2023/10/11 11:12:28;;;;;;;1999.90;999.90;;;20.70;99.90;;;;;;5046396;28;20047;-73
2023/10/11 11:14:56;;;;;;;1999.90;999.90;;;20.70;99.90;;;;;;5054521;28;20443;-72
2023/10/11 11:17:26;;;;;;;1999.90;999.90;;;20.60;99.90;;;;;;5041629;28;20090;-72
2023/10/11 11:20:12;;;;;;;1999.90;999.90;;;20.50;99.90;;;;;;5052686;28;20087;-72
2023/10/11 11:22:38;;;;;;;1999.90;999.90;;;20.40;99.90;;;;;;5048567;28;20132;-72
2023/10/11 11:25:16;;;;;;;1999.90;999.90;;;20.30;99.90;;;;;;5033069;28;20048;-72
2023/10/11 11:27:43;;;;;;;1999.90;999.90;;;20.10;99.90;;;;;;5048720;28;20045;-72
2023/10/11 11:30:33;;;;;;;1999.90;999.90;;;20.00;99.90;;;;;;5051307;28;20044;-73
2023/10/11 11:32:59;;;;;;;1999.90;999.90;;;20.00;99.90;;;;;;5032927;28;20040;-71
2023/10/11 11:35:29;;;;;;;1999.90;999.90;;;19.90;99.90;;;;;;5048901;28;20037;-72
2023/10/11 11:38:20;;;;;;;1999.90;999.90;;;19.90;99.90;;;;;;5049585;28;20398;-72
2023/10/11 11:40:51;;;;;;;1999.90;999.90;;;19.90;99.90;;;;;;5049270;28;20057;-73
2023/10/11 11:43:20;;;;;;;1999.90;999.90;;;19.90;99.90;;;;;;5048380;28;20446;-72
2023/10/11 11:45:47;;;;;;;1999.90;999.90;;;19.90;99.90;;;;;;5049072;28;20037;-72
2023/10/11 11:48:14;;;;;;;1999.90;999.90;;;19.90;99.90;;;;;;5045831;28;20398;-72
2023/10/11 11:50:39;;;;;;;1999.90;999.90;;;19.90;99.90;;;;;;5054203;28;20086;-72
2023/10/11 11:53:06;;;;;;;1999.90;999.90;;;19.90;99.90;;;;;;5049487;28;20036;-72
2023/10/11 11:55:34;;;;;;;1999.90;999.90;;;20.00;99.90;;;;;;5065049;28;20040;-72
2023/10/11 11:58:00;;;;;;;1999.90;999.90;;;20.10;99.90;;;;;;5042496;28;20045;-72
2023/10/11 12:02:52;;;;;;;1999.90;999.90;;;20.50;99.90;;;;;;5047394;28;20048;-71
2023/10/11 12:05:18;;;;;;;1999.90;999.90;;;20.60;99.90;;;;;;5048797;28;20045;-72
2023/10/11 12:07:44;;;;;;;1999.90;999.90;;;20.70;99.90;;;;;;5048425;28;20073;-72
2023/10/11 12:10:25;;;;;;;1999.90;999.90;;;20.60;99.90;;;;;;5049239;28;20072;-72
2023/10/11 12:13:05;;;;;;;1999.90;999.90;;;20.50;99.90;;;;;;5038516;28;20052;-73
2023/10/11 12:15:34;;;;;;;1999.90;999.90;;;20.50;99.90;;;;;;5045445;28;20084;-72
2023/10/11 12:18:05;;;;;;;1999.90;999.90;;;20.40;99.90;;;;;;5043806;28;20792;-71
2023/10/11 12:20:37;;;;;;;1999.90;999.90;;;20.40;99.90;;;;;;5044002;28;20455;-72
2023/10/11 12:23:09;;;;;;;1999.90;999.90;;;20.30;99.90;;;;;;5039723;28;20044;-72
2023/10/11 12:25:38;;;;;;;1999.90;999.90;;;20.10;99.90;;;;;;5044432;28;20352;-72
2023/10/11 12:28:05;;;;;;;1999.90;999.90;;;20.10;99.90;;;;;;5030540;28;20079;-72
2023/10/11 12:30:35;;;;;;;1999.90;999.90;;;20.00;99.90;;;;;;5024778;28;20508;-72
2023/10/11 12:33:06;;;;;;;1999.90;999.90;;;19.90;99.90;;;;;;5031039;28;20131;-72
2023/10/11 12:35:35;;;;;;;1999.90;999.90;;;19.90;99.90;;;;;;5047135;28;20530;-72
2023/10/11 12:38:01;;;;;;;1999.90;999.90;;;19.90;99.90;;;;;;5026308;28;20132;-71
2023/10/11 12:40:28;;;;;;;1999.90;999.90;;;19.90;99.90;;;;;;5025874;28;20120;-71
2023/10/11 12:42:55;;;;;;;1596.10;841.05;;;19.90;99.90;;;;;;5038069;28;20119;-72
2023/10/11 12:45:21;;;;;;;1999.90;999.90;;;19.90;99.90;;;;;;5042004;28;20048;-73
2023/10/11 12:47:47;;;;;;;1999.90;999.90;;;20.00;99.90;;;;;;5050357;28;20413;-72
2023/10/11 12:50:14;;;;;;;1999.90;999.90;;;19.90;99.90;;;;;;5060555;28;20044;-72
2023/10/11 12:52:40;;;;;;;1999.90;999.90;;;19.80;99.90;;;;;;5032287;28;20079;-72
2023/10/11 12:55:07;;;;;;;1999.90;999.90;;;19.80;99.90;;;;;;5033252;28;20088;-71
2023/10/11 12:57:38;;;;;;;1999.90;999.90;;;19.90;99.90;;;;;;5033301;28;20379;-71
2023/10/11 13:00:15;;;;;;;1999.90;999.90;;;19.90;99.90;;;;;;5032587;28;20072;-73
2023/10/11 13:02:48;;;;;;;1999.90;999.90;;;19.90;99.90;;;;;;5047486;28;20053;-72
2023/10/11 13:05:15;;;;;;;1999.90;999.90;;;20.00;99.90;;;;;;5037772;28;20398;-72
2023/10/11 13:07:42;;;;;;;1999.90;999.90;;;20.20;99.90;;;;;;5018680;28;20092;-71
2023/10/11 13:10:07;;;;;;;1999.90;999.90;;;20.40;99.90;;;;;;5037617;28;20068;-72
2023/10/11 13:12:37;;;;;;;1999.90;999.90;;;20.50;99.90;;;;;;5021700;28;20084;-72